Time;durP1;ratioP1;P1;durP2;ratioP2;P2;SDS_P1;SDS_P2;PMS_P1;PMS_P2;Temp;Humidity;BMP_temperature;BMP_pressure;BME280_temperature;BME280_humidity;BME280_pressure;Samples;Min_cycle;Max_cycle;Signal;HPM_P1;HPM_P2
2022/05/23 00:00:06;;;;;;;0.03;0.03;;;14.10;99.90;;;;;;5052448;28;20391;-83
2022/05/23 00:02:32;;;;;;;0.30;0.30;;;14.10;99.90;;;;;;5049077;28;20041;-83
2022/05/23 00:04:57;;;;;;;0.38;0.38;;;14.10;99.90;;;;;;5051816;28;20336;-83
2022/05/23 00:07:32;;;;;;;1.02;0.47;;;14.00;99.90;;;;;;5055277;28;20077;-83
2022/05/23 00:09:58;;;;;;;0.20;0.20;;;14.00;99.90;;;;;;5048539;28;20037;-82
2022/05/23 00:12:24;;;;;;;0.10;0.10;;;14.00;99.90;;;;;;4999530;28;20037;-82
2022/05/23 00:14:51;;;;;;;0.10;0.10;;;13.90;99.90;;;;;;5050597;28;20487;-83
2022/05/23 00:17:17;;;;;;;0.28;0.28;;;13.90;99.90;;;;;;5034676;28;20549;-89
2022/05/23 00:19:43;;;;;;;0.10;0.10;;;13.90;99.90;;;;;;5046954;28;20049;-90
2022/05/23 00:22:10;;;;;;;0.00;0.00;;;13.90;99.90;;;;;;5059649;28;20037;-90
2022/05/23 00:24:35;;;;;;;0.10;0.10;;;13.90;99.90;;;;;;5018307;28;20124;-89
2022/05/23 00:27:01;;;;;;;0.52;0.20;;;13.90;99.90;;;;;;5016120;28;20087;-90
2022/05/23 00:29:27;;;;;;;0.30;0.30;;;13.90;99.90;;;;;;5018640;28;20052;-89
2022/05/23 00:37:22;;;;;;;0.10;0.10;;;13.90;99.90;;;;;;5050905;28;20041;-84
2022/05/23 00:39:48;;;;;;;0.50;0.50;;;13.80;99.90;;;;;;5051757;28;20531;-83
2022/05/23 00:45:03;;;;;;;0.20;0.20;;;13.80;99.90;;;;;;5035192;28;20037;-83
2022/05/23 00:47:33;;;;;;;0.15;0.15;;;13.80;99.90;;;;;;5046330;28;20490;-83
2022/05/23 00:49:59;;;;;;;0.10;0.10;;;13.80;99.90;;;;;;5013344;28;20057;-90
2022/05/23 00:52:33;;;;;;;0.17;0.17;;;13.80;99.90;;;;;;5018425;28;20055;-91
2022/05/23 00:55:03;;;;;;;0.28;0.28;;;13.80;99.90;;;;;;5033621;28;20559;-90
2022/05/23 00:57:34;;;;;;;0.20;0.20;;;13.80;99.90;;;;;;5056214;28;20426;-90
2022/05/23 01:00:03;;;;;;;0.13;0.13;;;13.80;99.90;;;;;;5030260;28;20040;-90
2022/05/23 01:02:30;;;;;;;0.10;0.10;;;13.80;99.90;;;;;;5031794;28;20479;-90
2022/05/23 01:04:56;;;;;;;0.08;0.08;;;13.80;99.90;;;;;;5033560;28;20080;-90
2022/05/23 01:07:22;;;;;;;0.20;0.20;;;13.70;99.90;;;;;;5020790;28;20040;-90
2022/05/23 01:09:50;;;;;;;0.20;0.20;;;13.70;99.90;;;;;;5054820;28;20048;-90
2022/05/23 01:12:16;;;;;;;0.20;0.20;;;13.70;99.90;;;;;;5053332;28;20506;-90
2022/05/23 01:14:54;;;;;;;0.00;0.00;;;13.60;99.90;;;;;;5026146;28;20541;-90
2022/05/23 01:17:21;;;;;;;0.10;0.10;;;13.50;99.90;;;;;;5038337;28;20041;-90
2022/05/23 01:19:48;;;;;;;14.27;5.75;;;13.50;99.90;;;;;;5034768;28;20049;-90
2022/05/23 01:22:27;;;;;;;0.20;0.20;;;13.50;99.90;;;;;;5012003;28;20369;-84
2022/05/23 01:25:01;;;;;;;0.20;0.20;;;13.50;99.90;;;;;;5053538;28;20045;-84
2022/05/23 01:27:28;;;;;;;0.00;0.00;;;13.60;99.90;;;;;;5038005;28;20047;-84
2022/05/23 01:29:54;;;;;;;0.03;0.03;;;13.60;99.90;;;;;;5037818;28;20045;-84
2022/05/23 01:32:20;;;;;;;0.05;0.05;;;13.70;99.90;;;;;;5037952;28;20114;-84
2022/05/23 01:34:46;;;;;;;0.00;0.00;;;13.70;99.90;;;;;;5026019;28;20079;-83
2022/05/23 01:37:12;;;;;;;0.13;0.13;;;13.70;99.90;;;;;;5037687;28;20488;-84
2022/05/23 01:39:37;;;;;;;0.70;0.20;;;13.70;99.90;;;;;;5037405;28;20037;-90
2022/05/23 01:42:04;;;;;;;0.10;0.10;;;13.70;99.90;;;;;;5054678;28;20082;-90
2022/05/23 01:44:32;;;;;;;0.73;0.73;;;13.70;99.90;;;;;;5037266;28;20062;-90
2022/05/23 01:46:58;;;;;;;0.22;0.20;;;13.70;99.90;;;;;;5037642;28;20048;-90
2022/05/23 01:49:24;;;;;;;0.10;0.10;;;13.60;99.90;;;;;;5037632;28;20084;-90
2022/05/23 01:51:50;;;;;;;0.10;0.10;;;13.60;99.90;;;;;;5053605;28;20079;-90
2022/05/23 01:54:16;;;;;;;0.10;0.10;;;13.50;99.90;;;;;;5037561;28;20037;-90
2022/05/23 01:56:41;;;;;;;0.00;0.00;;;13.50;99.90;;;;;;5034371;28;20044;-90
2022/05/23 02:01:51;;;;;;;0.00;0.00;;;13.40;99.90;;;;;;5040087;28;20040;-90
2022/05/23 02:04:17;;;;;;;0.03;0.03;;;13.40;99.90;;;;;;4992334;28;20564;-90
2022/05/23 02:06:42;;;;;;;0.08;0.08;;;13.40;99.90;;;;;;5034823;28;20086;-90
2022/05/23 02:09:08;;;;;;;0.00;0.00;;;13.30;99.90;;;;;;5037461;28;20044;-90
2022/05/23 02:11:34;;;;;;;0.00;0.00;;;13.30;99.90;;;;;;5033017;28;20043;-90
2022/05/23 02:13:59;;;;;;;0.20;0.20;;;13.30;99.90;;;;;;5015089;28;20479;-83
2022/05/23 02:16:25;;;;;;;0.55;0.55;;;13.20;99.90;;;;;;5007481;28;20091;-83
2022/05/23 02:18:51;;;;;;;0.00;0.00;;;13.20;99.90;;;;;;5045954;28;20079;-83
2022/05/23 02:21:17;;;;;;;0.98;0.40;;;13.20;99.90;;;;;;5020757;28;20040;-83
2022/05/23 02:23:43;;;;;;;0.10;0.10;;;13.10;99.90;;;;;;5053923;28;20399;-83
2022/05/23 02:26:09;;;;;;;0.20;0.20;;;13.00;99.90;;;;;;5047368;28;20048;-83
2022/05/23 02:28:35;;;;;;;0.10;0.10;;;13.00;99.90;;;;;;5033916;28;20042;-83
2022/05/23 02:31:01;;;;;;;0.08;0.08;;;12.90;99.90;;;;;;5068699;28;20037;-83
2022/05/23 02:33:27;;;;;;;0.10;0.10;;;12.90;99.90;;;;;;5017187;28;20044;-84
2022/05/23 02:35:53;;;;;;;0.10;0.10;;;12.80;99.90;;;;;;5031272;28;20037;-84
2022/05/23 02:38:19;;;;;;;0.10;0.10;;;12.70;99.90;;;;;;5036615;28;20040;-84
2022/05/23 02:40:44;;;;;;;0.10;0.10;;;13.00;99.90;;;;;;5053644;28;20086;-87
2022/05/23 02:43:10;;;;;;;0.20;0.20;;;12.60;99.90;;;;;;5053338;28;20120;-88
2022/05/23 02:45:39;;;;;;;0.00;0.00;;;12.50;99.90;;;;;;5036584;28;20045;-88
2022/05/23 02:48:07;;;;;;;0.10;0.10;;;12.40;99.90;;;;;;5022643;28;20086;-87
2022/05/23 02:50:33;;;;;;;0.10;0.10;;;12.40;99.90;;;;;;5038668;28;20132;-87
2022/05/23 02:52:58;;;;;;;0.20;0.20;;;12.30;99.90;;;;;;5027594;28;20136;-88
2022/05/23 02:55:24;;;;;;;0.15;0.15;;;12.30;99.90;;;;;;5005961;28;20045;-87
2022/05/23 02:57:50;;;;;;;0.17;0.17;;;12.20;99.90;;;;;;4989082;28;20399;-88
2022/05/23 03:00:16;;;;;;;0.30;0.30;;;12.20;99.90;;;;;;5033053;28;20046;-87
2022/05/23 03:05:26;;;;;;;0.15;0.15;;;12.00;99.90;;;;;;4994847;28;20041;-83
2022/05/23 03:07:52;;;;;;;0.10;0.10;;;11.90;99.90;;;;;;5015856;28;20048;-83
2022/05/23 03:10:18;;;;;;;0.00;0.00;;;11.90;99.90;;;;;;5014074;28;20042;-83
2022/05/23 03:12:44;;;;;;;0.10;0.10;;;11.90;99.90;;;;;;5027740;28;20038;-83
2022/05/23 03:15:11;;;;;;;0.10;0.10;;;11.80;99.90;;;;;;5010454;28;20052;-83
2022/05/23 03:17:37;;;;;;;0.10;0.10;;;11.80;99.90;;;;;;5015786;28;20033;-83
2022/05/23 03:20:04;;;;;;;0.10;0.10;;;11.80;99.90;;;;;;5032846;28;20107;-90
2022/05/23 03:28:00;;;;;;;0.10;0.10;;;11.70;99.90;;;;;;5012052;28;20481;-90
2022/05/23 03:30:26;;;;;;;0.00;0.00;;;11.70;99.90;;;;;;5031842;28;20049;-90
2022/05/23 03:32:51;;;;;;;0.10;0.10;;;11.70;99.90;;;;;;4981013;28;20046;-90
2022/05/23 03:35:17;;;;;;;0.00;0.00;;;11.80;99.90;;;;;;4998618;28;20488;-89
2022/05/23 03:37:43;;;;;;;0.10;0.10;;;11.80;99.90;;;;;;5029081;28;20068;-90
2022/05/23 03:40:10;;;;;;;0.20;0.20;;;11.80;99.90;;;;;;5014661;28;20071;-90
2022/05/23 03:42:35;;;;;;;0.20;0.15;;;11.80;99.90;;;;;;5032206;28;20518;-90
2022/05/23 03:45:02;;;;;;;0.00;0.00;;;11.80;99.90;;;;;;5015590;28;20068;-90
2022/05/23 03:47:27;;;;;;;0.05;0.05;;;11.90;99.90;;;;;;5002596;28;20121;-90
2022/05/23 03:49:53;;;;;;;0.00;0.00;;;11.90;99.90;;;;;;4998860;28;20156;-90
2022/05/23 03:52:20;;;;;;;0.10;0.10;;;11.90;99.90;;;;;;5035790;28;20564;-84
2022/05/23 03:54:46;;;;;;;0.00;0.00;;;11.80;99.90;;;;;;5038587;28;20037;-83
2022/05/23 03:57:12;;;;;;;0.00;0.00;;;11.80;99.90;;;;;;5035627;28;20083;-83
2022/05/23 03:59:38;;;;;;;0.10;0.10;;;11.80;99.90;;;;;;5015277;28;20081;-83
2022/05/23 04:02:04;;;;;;;0.10;0.10;;;11.80;99.90;;;;;;5031031;28;20035;-83
2022/05/23 04:04:31;;;;;;;0.10;0.10;;;11.80;99.90;;;;;;5001933;28;20043;-83
2022/05/23 04:07:03;;;;;;;0.10;0.10;;;11.70;99.90;;;;;;5046430;28;20046;-83
2022/05/23 04:09:29;;;;;;;0.05;0.05;;;11.70;99.90;;;;;;5049788;28;20041;-87
2022/05/23 04:11:56;;;;;;;0.10;0.10;;;11.70;99.90;;;;;;5050582;28;20075;-87
2022/05/23 04:14:21;;;;;;;0.00;0.00;;;11.70;99.90;;;;;;5000915;28;20037;-87
2022/05/23 04:16:49;;;;;;;0.10;0.10;;;11.70;99.90;;;;;;5051733;28;20080;-88
2022/05/23 04:19:15;;;;;;;0.10;0.10;;;11.70;99.90;;;;;;5035547;28;20132;-88
2022/05/23 04:21:42;;;;;;;0.00;0.00;;;11.70;99.90;;;;;;5042045;28;20041;-83
2022/05/23 04:24:09;;;;;;;0.32;0.32;;;11.70;99.90;;;;;;5050270;28;20045;-83
2022/05/23 04:26:36;;;;;;;0.00;0.00;;;11.70;99.90;;;;;;5052477;28;20045;-90
2022/05/23 04:29:02;;;;;;;0.08;0.08;;;11.80;99.90;;;;;;5016918;28;20041;-90
2022/05/23 04:31:28;;;;;;;0.10;0.10;;;11.80;99.90;;;;;;5064070;28;20044;-90
2022/05/23 04:35:12;;;;;;;0.10;0.10;;;11.90;99.90;;;;;;5015487;28;20128;-90
2022/05/23 04:36:39;;;;;;;0.30;0.30;;;12.00;99.90;;;;;;5040032;28;20176;-90
2022/05/23 04:39:07;;;;;;;0.17;0.17;;;12.00;99.90;;;;;;5034504;28;20131;-90
2022/05/23 04:41:33;;;;;;;0.10;0.10;;;12.00;99.90;;;;;;5023801;28;20052;-90
2022/05/23 04:43:59;;;;;;;0.52;0.30;;;12.10;99.90;;;;;;5026190;28;20042;-88
2022/05/23 04:46:26;;;;;;;0.15;0.15;;;12.10;99.90;;;;;;5021012;28;20025;-87
2022/05/23 04:51:36;;;;;;;0.00;0.00;;;12.30;99.90;;;;;;5052905;28;20410;-87
2022/05/23 04:54:02;;;;;;;0.17;0.17;;;12.40;99.90;;;;;;5067173;28;20040;-87
2022/05/23 04:56:29;;;;;;;0.38;0.20;;;12.60;99.90;;;;;;5041348;28;20115;-87
2022/05/23 04:58:55;;;;;;;0.35;0.35;;;12.50;99.90;;;;;;5067268;28;20040;-84
2022/05/23 05:01:22;;;;;;;0.10;0.10;;;12.70;99.90;;;;;;5026208;28;20444;-83
2022/05/23 05:03:49;;;;;;;0.32;0.32;;;12.70;99.90;;;;;;5022119;28;20033;-83
2022/05/23 05:06:16;;;;;;;0.03;0.03;;;12.70;99.90;;;;;;5057986;28;20072;-83
2022/05/23 05:08:42;;;;;;;0.03;0.03;;;12.80;99.90;;;;;;5041910;28;20043;-83
2022/05/23 05:11:08;;;;;;;0.22;0.22;;;12.90;99.90;;;;;;5038621;28;20068;-84
2022/05/23 05:13:35;;;;;;;0.10;0.10;;;13.00;99.90;;;;;;5054452;28;20075;-83
2022/05/23 05:16:03;;;;;;;0.00;0.00;;;13.10;99.90;;;;;;5049282;28;20037;-83
2022/05/23 05:18:33;;;;;;;0.20;0.20;;;13.10;99.90;;;;;;5041151;28;20069;-83
2022/05/23 05:21:07;;;;;;;0.20;0.20;;;13.20;99.90;;;;;;5038118;28;20036;-83
2022/05/23 05:23:32;;;;;;;0.50;0.43;;;13.30;99.90;;;;;;5034064;28;20672;-83
2022/05/23 05:25:58;;;;;;;0.10;0.10;;;13.50;99.90;;;;;;5038244;28;20045;-83
2022/05/23 05:28:24;;;;;;;0.20;0.20;;;13.60;99.90;;;;;;4989255;28;20037;-83
2022/05/23 05:31:00;;;;;;;0.22;0.20;;;13.70;99.90;;;;;;5033975;28;20037;-83
2022/05/23 05:33:35;;;;;;;0.30;0.30;;;13.80;99.90;;;;;;5030803;28;20043;-89
2022/05/23 05:36:11;;;;;;;0.73;0.52;;;14.00;99.90;;;;;;5027477;28;20041;-89
2022/05/23 05:38:48;;;;;;;0.17;0.17;;;14.30;99.90;;;;;;5048217;28;20509;-89
2022/05/23 05:41:20;;;;;;;0.35;0.35;;;14.50;99.90;;;;;;5055449;28;20040;-89
2022/05/23 05:44:03;;;;;;;0.17;0.17;;;14.60;99.90;;;;;;5047688;28;20044;-89
2022/05/23 05:46:34;;;;;;;0.17;0.13;;;14.80;99.90;;;;;;5037333;28;20068;-88
2022/05/23 05:49:04;;;;;;;0.15;0.15;;;14.80;99.90;;;;;;5032690;28;20131;-84
2022/05/23 05:51:31;;;;;;;0.20;0.20;;;14.90;99.90;;;;;;5057415;28;20479;-83
2022/05/23 05:53:57;;;;;;;0.17;0.17;;;14.90;99.90;;;;;;5058079;28;20474;-84
2022/05/23 05:56:23;;;;;;;1.27;0.75;;;15.10;99.90;;;;;;5021112;28;20037;-83
2022/05/23 05:58:49;;;;;;;0.13;0.13;;;15.40;99.90;;;;;;5048806;28;20051;-84
2022/05/23 06:01:15;;;;;;;0.00;0.00;;;16.10;99.90;;;;;;5032343;28;20051;-84
2022/05/23 06:03:41;;;;;;;0.20;0.20;;;16.50;99.90;;;;;;5020516;28;20498;-84
2022/05/23 06:11:35;;;;;;;0.20;0.17;;;17.40;99.90;;;;;;5034849;28;20045;-84
2022/05/23 06:14:03;;;;;;;0.43;0.43;;;17.50;99.90;;;;;;5034392;28;20051;-84
2022/05/23 06:16:35;;;;;;;0.20;0.20;;;17.70;99.90;;;;;;5031412;28;20108;-84
2022/05/23 06:19:01;;;;;;;0.52;0.35;;;18.10;99.90;;;;;;5036628;28;20119;-84
2022/05/23 06:21:28;;;;;;;0.10;0.10;;;18.50;99.90;;;;;;5049994;28;20124;-85
2022/05/23 06:23:54;;;;;;;0.32;0.30;;;19.00;99.90;;;;;;5049222;28;20033;-89
2022/05/23 06:26:21;;;;;;;0.25;0.25;;;19.40;99.90;;;;;;5016306;28;20475;-90
2022/05/23 06:28:49;;;;;;;0.20;0.20;;;19.70;99.90;;;;;;5051095;28;20158;-89
2022/05/23 06:31:18;;;;;;;0.10;0.10;;;19.80;99.90;;;;;;5034439;28;20041;-89
2022/05/23 06:33:43;;;;;;;0.05;0.05;;;19.70;99.80;;;;;;5037049;28;20039;-89
2022/05/23 06:36:11;;;;;;;0.10;0.10;;;19.20;99.90;;;;;;5032124;28;20032;-89
2022/05/23 06:38:38;;;;;;;0.22;0.22;;;19.20;99.90;;;;;;5017362;28;20187;-89
2022/05/23 06:41:06;;;;;;;0.10;0.10;;;19.20;99.90;;;;;;5030931;28;20055;-89
2022/05/23 06:43:32;;;;;;;0.20;0.20;;;19.00;99.90;;;;;;5030311;28;20063;-89
2022/05/23 06:46:02;;;;;;;0.20;0.20;;;19.10;99.90;;;;;;5063520;28;20032;-88
2022/05/23 06:48:29;;;;;;;0.13;0.13;;;19.00;99.90;;;;;;5038269;28;20071;-89
2022/05/23 06:50:55;;;;;;;0.20;0.20;;;19.10;99.90;;;;;;5047050;28;20052;-88
2022/05/23 06:53:22;;;;;;;0.05;0.05;;;19.40;99.90;;;;;;5016335;28;20056;-89
2022/05/23 06:55:48;;;;;;;0.30;0.30;;;19.70;99.90;;;;;;5036482;28;20036;-88
2022/05/23 06:58:15;;;;;;;0.10;0.10;;;19.70;99.90;;;;;;5049129;28;20028;-88
2022/05/23 07:00:41;;;;;;;0.20;0.20;;;20.00;99.90;;;;;;5038049;28;20041;-88
2022/05/23 07:03:07;;;;;;;1.13;0.57;;;20.20;99.90;;;;;;5035505;28;20441;-89
2022/05/23 07:13:49;;;;;;;0.63;0.55;;;19.60;99.90;;;;;;5051693;28;20040;-85
2022/05/23 07:16:17;;;;;;;0.10;0.10;;;19.80;99.90;;;;;;5050707;28;20086;-86
2022/05/23 07:18:44;;;;;;;0.20;0.20;;;20.10;99.90;;;;;;5048090;28;20047;-86
2022/05/23 07:21:10;;;;;;;0.10;0.10;;;20.10;99.90;;;;;;5019690;28;20498;-85
2022/05/23 07:23:36;;;;;;;0.20;0.20;;;20.30;99.90;;;;;;5047595;28;20478;-85
2022/05/23 07:26:07;;;;;;;0.13;0.13;;;20.50;99.90;;;;;;5051455;28;20043;-86
2022/05/23 07:28:35;;;;;;;0.32;0.32;;;20.90;99.90;;;;;;5019479;28;20516;-86
2022/05/23 07:31:02;;;;;;;0.35;0.32;;;21.40;99.90;;;;;;5019004;28;20171;-90
2022/05/23 07:36:01;;;;;;;0.75;0.30;;;22.60;99.00;;;;;;5003907;28;20057;-83
2022/05/23 07:38:30;;;;;;;0.50;0.50;;;23.50;97.30;;;;;;4987603;28;20054;-84
2022/05/23 07:40:58;;;;;;;0.52;0.52;;;23.60;97.20;;;;;;4992921;28;20045;-84
2022/05/23 07:43:24;;;;;;;0.20;0.20;;;23.80;94.30;;;;;;4991941;28;20436;-83
2022/05/23 07:45:51;;;;;;;0.20;0.20;;;23.60;95.10;;;;;;5004242;28;20060;-84
2022/05/23 07:48:17;;;;;;;0.20;0.20;;;23.70;94.40;;;;;;4992368;28;20060;-83
2022/05/23 07:50:43;;;;;;;0.20;0.20;;;23.80;94.40;;;;;;4992801;28;20436;-84
2022/05/23 08:01:27;;;;;;;0.10;0.10;;;25.30;92.90;;;;;;4996643;28;20121;-83
2022/05/23 08:03:54;;;;;;;0.10;0.10;;;26.00;91.80;;;;;;4995524;28;20042;-86
2022/05/23 08:06:20;;;;;;;0.10;0.10;;;26.70;90.20;;;;;;4996352;28;20534;-86
2022/05/23 08:08:46;;;;;;;0.20;0.20;;;26.70;85.80;;;;;;4999940;28;20480;-86
2022/05/23 08:11:13;;;;;;;2.92;1.50;;;26.30;86.50;;;;;;4995993;28;20092;-87
2022/05/23 08:13:41;;;;;;;0.28;0.28;;;25.70;88.00;;;;;;4999909;28;20026;-86
2022/05/23 08:16:06;;;;;;;0.65;0.65;;;25.50;88.50;;;;;;4999258;28;20034;-88
2022/05/23 08:18:33;;;;;;;0.08;0.08;;;24.70;89.70;;;;;;4997811;28;20033;-88
2022/05/23 08:20:59;;;;;;;0.20;0.20;;;24.20;90.70;;;;;;4982719;28;20037;-84
2022/05/23 08:23:26;;;;;;;0.20;0.20;;;23.60;91.00;;;;;;4984421;28;20116;-85
2022/05/23 08:25:52;;;;;;;0.20;0.20;;;23.50;91.50;;;;;;4993171;28;20089;-84
2022/05/23 08:28:17;;;;;;;0.10;0.10;;;23.40;92.20;;;;;;4981451;28;20049;-85
2022/05/23 08:30:43;;;;;;;0.10;0.10;;;23.40;92.10;;;;;;4983409;28;20077;-85
2022/05/23 08:33:09;;;;;;;0.10;0.10;;;23.20;92.60;;;;;;4975687;28;20042;-85
2022/05/23 08:35:34;;;;;;;0.50;0.50;;;23.00;93.20;;;;;;4974148;28;20050;-87
2022/05/23 08:38:01;;;;;;;0.10;0.10;;;22.90;93.80;;;;;;4973296;28;20042;-86
2022/05/23 08:41:00;;;;;;;0.28;0.28;;;23.50;93.50;;;;;;4988335;28;20053;-92
2022/05/23 08:43:46;;;;;;;0.10;0.10;;;24.60;91.80;;;;;;4967675;28;20558;-86
2022/05/23 08:46:25;;;;;;;0.22;0.15;;;25.40;90.90;;;;;;4971221;28;20043;-86
2022/05/23 08:49:02;;;;;;;0.20;0.20;;;25.80;89.70;;;;;;4972131;28;20049;-86
2022/05/23 08:51:36;;;;;;;0.28;0.28;;;26.20;88.80;;;;;;4988569;28;20045;-87
2022/05/23 08:54:21;;;;;;;0.20;0.20;;;26.40;86.50;;;;;;4988220;28;20053;-85
2022/05/23 08:56:56;;;;;;;1.48;0.60;;;27.10;87.30;;;;;;4988970;28;20431;-85
2022/05/23 08:59:29;;;;;;;1.08;0.38;;;28.10;84.70;;;;;;4989453;28;20501;-85
2022/05/23 09:01:59;;;;;;;0.20;0.20;;;28.50;85.20;;;;;;4988569;28;20054;-85
2022/05/23 09:04:47;;;;;;;0.38;0.38;;;28.80;81.70;;;;;;4988118;28;20046;-85
2022/05/23 09:07:33;;;;;;;0.30;0.30;;;29.60;83.10;;;;;;4989135;28;20050;-85
2022/05/23 09:10:03;;;;;;;0.20;0.20;;;30.10;77.90;;;;;;4974507;28;20599;-84
2022/05/23 09:12:29;;;;;;;0.20;0.20;;;30.00;76.30;;;;;;4975077;28;20034;-84
2022/05/23 09:14:56;;;;;;;0.10;0.10;;;30.20;75.10;;;;;;4956581;28;20185;-82
2022/05/23 09:17:25;;;;;;;0.10;0.10;;;30.30;73.30;;;;;;5005021;28;20043;-83
2022/05/23 09:20:01;;;;;;;0.10;0.10;;;30.80;74.60;;;;;;4988515;28;20043;-83
2022/05/23 09:22:43;;;;;;;0.28;0.28;;;31.00;73.00;;;;;;4985373;28;20035;-83
2022/05/23 09:25:16;;;;;;;0.10;0.10;;;30.90;73.50;;;;;;4988847;28;20117;-83
2022/05/23 09:28:34;;;;;;;0.35;0.35;;;31.30;73.80;;;;;;4987915;28;20050;-83
2022/05/23 09:31:10;;;;;;;0.10;0.10;;;32.30;70.30;;;;;;4959812;28;20069;-84
2022/05/23 09:33:48;;;;;;;0.30;0.30;;;33.20;69.70;;;;;;5002830;28;20120;-84
2022/05/23 09:36:27;;;;;;;0.10;0.10;;;33.10;65.80;;;;;;4993732;28;20057;-84
2022/05/23 09:38:59;;;;;;;0.45;0.30;;;32.70;66.70;;;;;;4974395;28;20042;-84
2022/05/23 09:49:57;;;;;;;0.63;0.63;;;29.10;70.50;;;;;;5001352;28;20400;-93
2022/05/23 09:52:29;;;;;;;1.02;0.77;;;28.40;73.60;;;;;;4983242;28;20040;-93
2022/05/23 09:55:06;;;;;;;0.15;0.15;;;27.70;73.90;;;;;;4995331;28;20403;-93
2022/05/23 09:57:42;;;;;;;0.38;0.38;;;27.40;74.60;;;;;;5005704;28;20148;-93
2022/05/23 10:00:17;;;;;;;0.20;0.20;;;27.30;74.10;;;;;;4985739;28;20542;-83
2022/05/23 10:03:01;;;;;;;0.10;0.10;;;27.00;74.60;;;;;;4992543;28;20084;-84
2022/05/23 10:06:11;;;;;;;0.15;0.15;;;27.00;76.00;;;;;;4974733;28;20041;-83
2022/05/23 10:08:43;;;;;;;0.10;0.10;;;27.60;77.20;;;;;;4965551;28;20100;-83
2022/05/23 10:11:25;;;;;;;0.10;0.10;;;28.40;76.20;;;;;;4994416;28;20037;-84
2022/05/23 10:14:00;;;;;;;0.75;0.40;;;28.70;73.10;;;;;;4989081;28;20054;-83
2022/05/23 10:16:42;;;;;;;0.30;0.30;;;29.40;70.70;;;;;;4978415;28;20034;-90
2022/05/23 10:19:09;;;;;;;0.00;0.00;;;30.20;70.80;;;;;;5000897;28;20053;-88
2022/05/23 10:21:43;;;;;;;0.17;0.17;;;31.20;71.00;;;;;;4998653;28;20046;-89
2022/05/23 10:24:18;;;;;;;0.10;0.10;;;32.50;72.20;;;;;;5000529;28;20053;-90
2022/05/23 10:26:48;;;;;;;0.20;0.20;;;33.90;66.30;;;;;;4983164;28;20034;-90
2022/05/23 10:29:27;;;;;;;0.10;0.10;;;34.20;65.90;;;;;;4996910;28;20385;-90
2022/05/23 10:32:03;;;;;;;1.08;0.70;;;33.60;63.10;;;;;;4980297;28;20483;-89
2022/05/23 10:34:40;;;;;;;0.50;0.50;;;33.10;63.20;;;;;;4995279;28;20061;-89
2022/05/23 10:37:12;;;;;;;0.10;0.10;;;33.50;63.90;;;;;;4998535;28;20488;-89
2022/05/23 10:42:44;;;;;;;0.10;0.10;;;33.10;62.90;;;;;;5004330;28;20042;-89
2022/05/23 10:45:28;;;;;;;0.10;0.10;;;33.40;66.10;;;;;;4999170;28;20384;-89
2022/05/23 10:48:21;;;;;;;0.10;0.10;;;33.90;64.10;;;;;;4993172;28;20080;-90
2022/05/23 10:50:56;;;;;;;0.50;0.50;;;33.10;61.10;;;;;;5007148;28;20038;-83
2022/05/23 10:53:27;;;;;;;0.13;0.13;;;32.30;62.40;;;;;;4991517;28;20487;-83
2022/05/23 10:56:20;;;;;;;0.63;0.63;;;32.60;64.10;;;;;;5007829;28;20054;-83
2022/05/23 10:58:49;;;;;;;0.10;0.10;;;32.50;60.10;;;;;;4991336;28;20118;-83
2022/05/23 11:01:32;;;;;;;0.52;0.52;;;32.10;59.80;;;;;;4994638;28;20042;-83
2022/05/23 11:04:16;;;;;;;0.20;0.20;;;31.00;63.80;;;;;;4990244;28;20042;-83
2022/05/23 11:07:24;;;;;;;0.40;0.40;;;31.00;64.60;;;;;;4991031;28;20092;-83
2022/05/23 11:10:02;;;;;;;0.05;0.05;;;32.00;64.20;;;;;;5006741;28;20133;-83
2022/05/23 11:12:53;;;;;;;0.22;0.22;;;32.50;62.40;;;;;;4988288;28;20400;-84
2022/05/23 11:15:57;;;;;;;0.25;0.25;;;32.50;63.60;;;;;;4989412;28;20069;-83
2022/05/23 11:18:31;;;;;;;0.10;0.10;;;32.90;64.40;;;;;;4990445;28;20511;-84
2022/05/23 11:21:04;;;;;;;0.10;0.10;;;33.20;61.70;;;;;;4980411;28;20396;-83
2022/05/23 11:23:41;;;;;;;0.10;0.10;;;33.50;61.10;;;;;;4989167;28;20396;-89
2022/05/23 11:26:21;;;;;;;0.08;0.08;;;33.30;61.50;;;;;;4991456;28;20121;-88
2022/05/23 11:33:41;;;;;;;;;;;31.40;58.70;;;;;;5005657;28;20050;-89
2022/05/23 11:34:51;;;;;;;0.20;0.20;;;31.10;61.00;;;;;;4988627;28;19921;-88
2022/05/23 11:40:06;;;;;;;0.10;0.10;;;31.10;60.80;;;;;;5009368;28;20057;-90
2022/05/23 11:42:55;;;;;;;0.10;0.10;;;31.50;62.20;;;;;;4999249;28;20095;-90
2022/05/23 11:48:34;;;;;;;0.20;0.20;;;31.50;59.30;;;;;;4999438;28;20128;-90
2022/05/23 11:51:12;;;;;;;0.13;0.10;;;30.80;60.80;;;;;;4996446;28;20097;-89
2022/05/23 11:53:55;;;;;;;0.10;0.10;;;30.50;61.00;;;;;;4976718;28;20081;-90
2022/05/23 11:56:33;;;;;;;0.43;0.43;;;29.90;61.20;;;;;;4997132;28;20107;-90
2022/05/23 11:58:59;;;;;;;0.05;0.05;;;29.40;63.10;;;;;;4990684;28;20046;-90
2022/05/23 12:01:30;;;;;;;0.10;0.10;;;28.70;62.20;;;;;;4990041;28;20109;-90
2022/05/23 12:03:56;;;;;;;0.17;0.17;;;28.50;63.10;;;;;;4989954;28;20053;-89
2022/05/23 12:06:24;;;;;;;0.20;0.20;;;28.50;65.00;;;;;;4991963;28;20046;-90
2022/05/23 12:09:02;;;;;;;0.20;0.20;;;28.20;65.20;;;;;;4972474;28;21871;-90
2022/05/23 12:11:33;;;;;;;0.60;0.35;;;27.90;65.90;;;;;;4988019;28;20049;-89
2022/05/23 12:14:19;;;;;;;0.13;0.13;;;27.90;67.20;;;;;;4992731;28;20504;-89
2022/05/23 12:16:57;;;;;;;0.95;0.95;;;28.00;66.90;;;;;;4996311;28;20527;-90
2022/05/23 12:19:32;;;;;;;0.10;0.10;;;28.00;65.90;;;;;;4997729;28;20042;-90
2022/05/23 12:22:20;;;;;;;0.30;0.30;;;28.00;65.80;;;;;;4993787;28;20511;-90
2022/05/23 12:25:09;;;;;;;0.63;0.63;;;27.90;66.80;;;;;;5009556;28;20046;-90
2022/05/23 12:27:38;;;;;;;0.32;0.32;;;27.50;66.50;;;;;;4983421;28;20531;-90
2022/05/23 12:30:25;;;;;;;0.52;0.30;;;27.40;67.30;;;;;;4998508;28;20046;-83
2022/05/23 12:32:55;;;;;;;0.10;0.10;;;27.20;66.10;;;;;;4990999;28;20045;-83
2022/05/23 12:35:31;;;;;;;0.35;0.35;;;26.90;66.90;;;;;;5005396;28;20513;-83
2022/05/23 12:37:57;;;;;;;0.30;0.25;;;26.70;69.40;;;;;;4988504;28;20053;-83
2022/05/23 12:40:30;;;;;;;0.30;0.30;;;26.70;70.20;;;;;;4990973;28;20038;-83
2022/05/23 12:43:08;;;;;;;0.13;0.13;;;26.80;70.00;;;;;;4989895;28;20037;-84
2022/05/23 12:45:56;;;;;;;0.20;0.20;;;26.90;68.70;;;;;;4989083;28;20042;-83
2022/05/23 12:48:51;;;;;;;0.65;0.25;;;26.80;67.10;;;;;;4990455;28;20054;-83
2022/05/23 12:51:40;;;;;;;0.52;0.43;;;26.60;69.10;;;;;;4991068;28;20038;-83
2022/05/23 12:54:35;;;;;;;0.00;0.00;;;26.60;68.80;;;;;;4988637;28;20038;-85
2022/05/23 12:57:11;;;;;;;2.05;0.75;;;26.30;71.30;;;;;;4990578;28;20045;-83
2022/05/23 12:59:55;;;;;;;0.17;0.17;;;26.20;71.60;;;;;;4988192;28;20041;-83
2022/05/23 13:02:41;;;;;;;0.25;0.20;;;26.00;72.50;;;;;;5004231;28;20707;-88
2022/05/23 13:05:35;;;;;;;0.00;0.00;;;25.70;71.50;;;;;;4998557;28;20484;-87
2022/05/23 13:08:19;;;;;;;0.00;0.00;;;25.40;75.00;;;;;;4999429;28;20034;-88
2022/05/23 13:10:50;;;;;;;0.38;0.35;;;25.10;76.70;;;;;;4994284;28;20046;-88
2022/05/23 13:13:28;;;;;;;0.63;0.57;;;24.80;79.40;;;;;;5001289;28;20128;-88
2022/05/23 13:15:54;;;;;;;0.10;0.10;;;24.70;84.30;;;;;;4996974;28;20490;-87
2022/05/23 13:23:53;;;;;;;0.00;0.00;;;24.10;90.40;;;;;;5012234;28;20042;-89
2022/05/23 13:26:20;;;;;;;0.05;0.05;;;23.90;91.20;;;;;;4977560;28;20033;-88
2022/05/23 13:28:53;;;;;;;0.10;0.10;;;23.80;91.60;;;;;;4998321;28;20123;-89
2022/05/23 13:31:31;;;;;;;0.28;0.20;;;23.80;93.60;;;;;;4995310;28;20050;-88
2022/05/23 13:33:59;;;;;;;0.10;0.10;;;23.80;98.20;;;;;;5014710;22;21194;-83
2022/05/23 13:36:27;;;;;;;2.25;0.47;;;23.90;99.90;;;;;;5052060;28;20056;-89
2022/05/23 13:39:04;;;;;;;0.13;0.13;;;24.00;99.90;;;;;;5053145;28;20121;-89
2022/05/23 13:41:31;;;;;;;0.10;0.10;;;24.00;99.90;;;;;;5054929;28;20732;-89
2022/05/23 13:43:58;;;;;;;0.10;0.10;;;24.10;96.60;;;;;;5053703;28;20033;-89
2022/05/23 13:46:37;;;;;;;0.10;0.10;;;24.20;98.50;;;;;;5054634;28;20040;-89
2022/05/23 13:49:11;;;;;;;0.25;0.25;;;24.30;97.10;;;;;;5054759;28;20471;-89
2022/05/23 13:51:59;;;;;;;0.10;0.10;;;;;;;;;;5036838;28;20048;-90
2022/05/23 13:54:41;;;;;;;0.17;0.17;;;24.70;95.80;;;;;;5070199;28;20068;-89
2022/05/23 13:57:14;;;;;;;0.25;0.22;;;24.70;93.80;;;;;;5051701;28;20048;-90
2022/05/23 13:59:52;;;;;;;0.10;0.10;;;24.80;94.70;;;;;;5051523;28;20041;-90
2022/05/23 14:02:20;;;;;;;0.00;0.00;;;24.70;93.10;;;;;;5070406;28;20391;-89
2022/05/23 14:04:48;;;;;;;0.10;0.10;;;24.80;94.20;;;;;;5037904;28;20043;-89
2022/05/23 14:07:17;;;;;;;0.15;0.15;;;24.70;93.30;;;;;;5049401;28;20048;-88
2022/05/23 14:09:44;;;;;;;0.30;0.30;;;24.70;92.50;;;;;;5050096;28;20055;-89
2022/05/23 14:12:13;;;;;;;0.00;0.00;;;24.70;94.90;;;;;;5031556;28;20047;-89
2022/05/23 14:14:50;;;;;;;0.82;0.80;;;24.60;95.80;;;;;;5022531;28;20037;-89
2022/05/23 14:17:25;;;;;;;0.10;0.10;;;24.50;95.50;;;;;;5048843;28;20046;-91
2022/05/23 14:20:09;;;;;;;0.00;0.00;;;24.50;96.30;;;;;;5047283;28;20552;-90